Time;durP1;ratioP1;P1;durP2;ratioP2;P2;SDS_P1;SDS_P2;PMS_P1;PMS_P2;Temp;Humidity;BMP_temperature;BMP_pressure;BME280_temperature;BME280_humidity;BME280_pressure;Samples;Min_cycle;Max_cycle;Signal;HPM_P1;HPM_P2
2023/10/13 00:02:02;;;;;;;4.53;4.10;;;18.70;99.90;;;;;;4972941;28;20503;-71
2023/10/13 00:04:28;;;;;;;10.50;5.73;;;18.70;99.90;;;;;;4969651;28;20231;-70
2023/10/13 00:06:58;;;;;;;8.87;4.70;;;18.60;99.90;;;;;;4960654;28;20815;-70
2023/10/13 00:09:25;;;;;;;9.30;4.77;;;18.60;99.90;;;;;;4972853;28;20459;-70
2023/10/13 00:11:53;;;;;;;10.37;4.77;;;18.60;99.90;;;;;;4972729;28;20455;-70
2023/10/13 00:14:20;;;;;;;5.63;5.13;;;18.50;99.90;;;;;;4972674;28;20423;-70
2023/10/13 00:17:01;;;;;;;9.47;5.17;;;18.50;99.90;;;;;;4972836;28;20420;-71
2023/10/13 00:19:28;;;;;;;8.10;5.17;;;18.70;99.90;;;;;;4972943;28;20565;-71
2023/10/13 00:21:56;;;;;;;8.33;5.90;;;18.40;99.90;;;;;;4963752;28;20471;-71
2023/10/13 00:24:23;;;;;;;5.17;4.60;;;18.30;99.90;;;;;;4970688;28;20831;-71
2023/10/13 00:26:53;;;;;;;5.60;4.90;;;18.20;99.90;;;;;;4966072;28;20462;-70
2023/10/13 00:29:28;;;;;;;7.90;4.97;;;18.20;99.90;;;;;;4972801;28;20503;-70
2023/10/13 00:31:54;;;;;;;6.23;5.20;;;18.10;99.90;;;;;;4972995;28;20795;-70
2023/10/13 00:37:10;;;;;;;8.13;4.90;;;18.10;99.90;;;;;;4972423;28;20613;-70
2023/10/13 00:39:36;;;;;;;5.73;4.63;;;18.10;99.90;;;;;;4975628;28;20593;-70
2023/10/13 00:42:06;;;;;;;5.53;4.90;;;18.00;99.90;;;;;;4976195;28;20494;-71
2023/10/13 00:44:38;;;;;;;11.30;5.03;;;18.00;99.90;;;;;;4976161;28;20478;-69
2023/10/13 00:47:07;;;;;;;8.87;5.13;;;17.90;99.90;;;;;;4976379;28;20431;-70
2023/10/13 00:49:36;;;;;;;7.17;5.60;;;17.90;99.90;;;;;;4976245;28;20498;-70
2023/10/13 00:52:01;;;;;;;8.60;4.93;;;17.90;99.90;;;;;;4976086;28;20472;-69
2023/10/13 00:54:27;;;;;;;5.20;4.50;;;17.80;99.90;;;;;;4972366;28;20463;-69
2023/10/13 00:57:04;;;;;;;6.97;4.80;;;17.70;99.90;;;;;;4964418;28;20448;-69
2023/10/13 00:59:41;;;;;;;10.60;5.43;;;17.70;99.90;;;;;;4974891;28;20179;-70
2023/10/13 01:04:51;;;;;;;5.63;4.90;;;17.60;99.90;;;;;;4975933;28;20459;-70
2023/10/13 01:07:17;;;;;;;5.20;4.70;;;17.60;99.90;;;;;;4975996;28;20868;-69
2023/10/13 01:09:42;;;;;;;8.70;5.17;;;17.50;99.90;;;;;;4975852;28;20177;-69
2023/10/13 01:12:08;;;;;;;6.60;5.40;;;17.50;99.90;;;;;;4967445;28;20304;-70
2023/10/13 01:14:35;;;;;;;6.63;5.30;;;17.40;99.90;;;;;;4966019;28;20217;-70
2023/10/13 01:17:01;;;;;;;5.83;5.30;;;17.40;99.90;;;;;;4975697;28;20427;-70
2023/10/13 01:19:27;;;;;;;6.63;4.90;;;17.40;99.90;;;;;;4975668;28;20426;-70
2023/10/13 01:22:01;;;;;;;10.43;5.70;;;17.40;99.90;;;;;;4975468;28;20463;-70
2023/10/13 01:24:33;;;;;;;5.67;4.80;;;17.40;99.90;;;;;;4975268;28;20419;-70
2023/10/13 01:27:07;;;;;;;11.47;5.70;;;17.80;99.90;;;;;;4975538;28;20419;-70
2023/10/13 01:29:34;;;;;;;8.60;4.80;;;17.40;99.90;;;;;;4966582;28;20447;-69
2023/10/13 01:31:59;;;;;;;5.73;5.23;;;17.50;99.90;;;;;;4968394;28;20463;-69
2023/10/13 01:34:25;;;;;;;6.20;5.27;;;17.50;99.90;;;;;;4973257;28;20450;-70
2023/10/13 01:36:52;;;;;;;9.30;5.17;;;17.50;99.90;;;;;;4975329;28;20475;-69
2023/10/13 01:39:26;;;;;;;6.80;4.50;;;17.50;99.90;;;;;;4975370;28;20176;-70
2023/10/13 01:41:58;;;;;;;15.00;5.30;;;17.50;99.90;;;;;;4975141;28;20984;-70
2023/10/13 01:44:27;;;;;;;5.63;5.03;;;17.50;99.90;;;;;;4975022;28;20425;-69
2023/10/13 01:46:53;;;;;;;8.40;6.20;;;17.50;99.90;;;;;;4966800;28;20447;-70
2023/10/13 01:49:21;;;;;;;8.53;5.07;;;17.50;99.90;;;;;;4973940;28;20511;-70
2023/10/13 01:51:47;;;;;;;10.10;4.90;;;17.40;99.90;;;;;;4975222;28;20595;-69
2023/10/13 01:54:15;;;;;;;7.93;4.80;;;17.40;99.90;;;;;;4974795;28;20805;-69
2023/10/13 01:56:43;;;;;;;7.57;5.50;;;17.30;99.90;;;;;;4974918;28;20515;-69
2023/10/13 01:59:12;;;;;;;8.67;5.30;;;17.30;99.90;;;;;;4974906;28;20438;-69
2023/10/13 02:01:39;;;;;;;5.97;4.83;;;17.30;99.90;;;;;;4973760;28;20482;-69
2023/10/13 02:04:06;;;;;;;6.83;4.70;;;17.30;99.90;;;;;;4965408;28;20915;-70
2023/10/13 02:06:33;;;;;;;9.07;5.03;;;17.20;99.90;;;;;;4974648;28;20458;-70
2023/10/13 02:09:17;;;;;;;7.93;5.90;;;17.20;99.90;;;;;;4967915;28;20467;-69
2023/10/13 02:11:46;;;;;;;6.53;5.37;;;17.20;99.90;;;;;;4955230;28;20432;-70
2023/10/13 02:14:17;;;;;;;6.13;5.53;;;17.20;99.90;;;;;;4955114;28;20420;-69
2023/10/13 02:16:42;;;;;;;8.67;5.20;;;17.20;99.90;;;;;;4970434;28;20454;-69
2023/10/13 02:19:08;;;;;;;7.20;5.37;;;17.10;99.90;;;;;;4971186;28;20462;-69
2023/10/13 02:21:39;;;;;;;6.03;5.43;;;17.10;99.90;;;;;;4966124;28;20208;-69
2023/10/13 02:24:12;;;;;;;4.67;4.13;;;17.10;99.90;;;;;;4966438;28;20196;-70
2023/10/13 02:26:40;;;;;;;8.67;5.50;;;17.10;99.90;;;;;;4974348;28;20419;-69
2023/10/13 02:29:12;;;;;;;9.30;6.10;;;17.10;99.90;;;;;;4974246;28;20416;-70
2023/10/13 02:31:39;;;;;;;10.50;5.70;;;17.10;99.90;;;;;;4974245;28;20454;-69
2023/10/13 02:34:08;;;;;;;6.20;5.60;;;17.00;99.90;;;;;;4974078;28;20940;-70
2023/10/13 02:36:38;;;;;;;7.03;5.80;;;17.00;99.90;;;;;;4970513;28;20578;-69
2023/10/13 02:39:08;;;;;;;8.30;6.60;;;17.10;99.90;;;;;;4969523;28;20879;-70
2023/10/13 02:41:37;;;;;;;6.90;5.33;;;17.00;99.90;;;;;;4974084;28;20467;-69
2023/10/13 02:44:06;;;;;;;5.60;4.97;;;17.00;99.90;;;;;;4973933;28;20459;-69
2023/10/13 02:46:35;;;;;;;6.60;5.80;;;17.00;99.90;;;;;;4974186;28;20426;-69
2023/10/13 02:49:09;;;;;;;5.80;5.20;;;17.00;99.90;;;;;;4972833;28;20428;-69
2023/10/13 02:51:35;;;;;;;5.47;4.97;;;17.00;99.90;;;;;;4973955;28;20451;-69
2023/10/13 02:54:10;;;;;;;5.63;4.73;;;17.00;99.90;;;;;;4966480;28;20448;-70
2023/10/13 02:56:36;;;;;;;8.00;5.47;;;17.00;99.90;;;;;;4973579;28;20469;-70
2023/10/13 02:59:05;;;;;;;6.30;5.17;;;17.00;99.90;;;;;;4973871;28;20451;-70
2023/10/13 03:01:35;;;;;;;7.37;4.93;;;17.00;99.90;;;;;;4973307;28;20467;-69
2023/10/13 03:04:02;;;;;;;6.57;5.40;;;17.00;99.90;;;;;;4973431;28;20486;-69
2023/10/13 03:06:35;;;;;;;6.73;4.83;;;17.00;99.90;;;;;;4973760;28;20420;-70
2023/10/13 03:09:14;;;;;;;9.13;5.20;;;16.90;99.90;;;;;;4972686;28;20478;-70
2023/10/13 03:11:50;;;;;;;7.10;5.40;;;16.90;99.90;;;;;;4961036;28;20448;-70
2023/10/13 03:17:02;;;;;;;8.07;5.40;;;16.90;99.90;;;;;;4973831;28;20451;-70
2023/10/13 03:19:32;;;;;;;8.73;5.60;;;16.80;99.90;;;;;;4973608;28;20897;-70
2023/10/13 03:22:09;;;;;;;7.53;5.10;;;16.80;99.90;;;;;;4973429;28;20463;-70
2023/10/13 03:24:34;;;;;;;6.47;5.00;;;16.80;99.90;;;;;;4973376;28;20904;-70
2023/10/13 03:27:11;;;;;;;8.23;5.70;;;16.80;99.90;;;;;;4966167;28;20503;-69
2023/10/13 03:29:43;;;;;;;5.57;5.00;;;16.80;99.90;;;;;;4973414;28;20208;-70
2023/10/13 03:32:15;;;;;;;8.60;6.00;;;16.80;99.90;;;;;;4973374;28;21232;-70
2023/10/13 03:34:54;;;;;;;9.63;5.27;;;16.70;99.90;;;;;;4973160;28;20798;-70
2023/10/13 03:37:39;;;;;;;6.33;5.00;;;16.70;99.90;;;;;;4973285;28;20426;-70
2023/10/13 03:43:09;;;;;;;6.60;6.00;;;16.60;99.90;;;;;;4967543;28;20460;-69
2023/10/13 03:45:42;;;;;;;8.47;5.40;;;16.50;99.90;;;;;;4972641;28;20427;-69
2023/10/13 03:51:10;;;;;;;8.80;5.20;;;16.30;99.90;;;;;;4973312;28;20527;-69
2023/10/13 03:53:52;;;;;;;6.80;4.93;;;16.30;99.90;;;;;;4972760;28;20817;-69
2023/10/13 03:56:26;;;;;;;6.87;5.27;;;16.20;99.90;;;;;;4973144;28;20498;-69
2023/10/13 03:58:53;;;;;;;10.40;6.67;;;16.10;99.90;;;;;;4971312;28;20929;-70
2023/10/13 04:01:31;;;;;;;6.83;4.93;;;16.10;99.90;;;;;;4964608;28;20467;-69
2023/10/13 04:04:03;;;;;;;7.40;5.53;;;16.10;99.90;;;;;;4972683;28;20447;-69
2023/10/13 04:17:27;;;;;;;5.80;5.30;;;16.00;99.90;;;;;;4967630;28;20455;-69
2023/10/13 04:26:07;;;;;;;12.57;5.23;;;16.10;99.90;;;;;;4977038;28;20431;-70
2023/10/13 04:30:59;;;;;;;8.10;5.53;;;16.10;99.90;;;;;;4976687;28;20428;-70
2023/10/13 04:36:14;;;;;;;6.33;4.70;;;16.00;99.90;;;;;;4970478;28;20450;-69
2023/10/13 04:38:59;;;;;;;9.03;5.10;;;16.00;99.90;;;;;;4968599;28;20960;-70
2023/10/13 04:41:42;;;;;;;8.33;5.27;;;15.90;99.90;;;;;;4976337;28;20466;-69
2023/10/13 04:52:12;;;;;;;10.30;5.30;;;15.80;99.90;;;;;;4969204;28;20468;-69
2023/10/13 04:57:34;;;;;;;6.00;4.73;;;15.80;99.90;;;;;;4976329;28;20432;-70
2023/10/13 05:02:43;;;;;;;8.70;5.70;;;15.80;99.90;;;;;;4966743;28;20473;-70
2023/10/13 06:28:40;;;;;;;7.73;5.80;;;15.60;99.90;;;;;;4984484;28;20762;-70
2023/10/13 06:29:56;;;;;;;8.70;6.37;;;17.10;99.90;;;;;;4974607;28;20848;-67
2023/10/13 06:32:25;;;;;;;7.90;6.30;;;17.20;99.90;;;;;;4974326;28;20435;-68
2023/10/13 06:34:57;;;;;;;5.40;4.90;;;17.30;99.90;;;;;;4973488;28;20554;-68
2023/10/13 06:37:30;;;;;;;5.07;4.60;;;17.40;99.90;;;;;;4974687;28;20810;-68
2023/10/13 06:40:06;;;;;;;18.43;6.37;;;17.50;99.90;;;;;;4974241;28;20830;-68
2023/10/13 06:42:34;;;;;;;6.10;5.10;;;17.60;99.90;;;;;;4970662;28;20990;-68
2023/10/13 06:45:03;;;;;;;8.23;5.23;;;17.70;99.90;;;;;;4961142;28;20945;-67
2023/10/13 06:47:28;;;;;;;8.73;6.83;;;17.70;99.90;;;;;;4972703;28;20428;-67
2023/10/13 06:49:56;;;;;;;6.47;5.87;;;17.70;99.90;;;;;;4974039;28;20463;-67
2023/10/13 06:52:22;;;;;;;8.67;5.67;;;17.70;99.90;;;;;;4973933;28;20271;-66
2023/10/13 06:54:53;;;;;;;8.43;4.87;;;17.70;99.90;;;;;;4973615;28;20427;-68
2023/10/13 06:57:21;;;;;;;9.80;6.40;;;17.70;99.90;;;;;;4973965;28;20412;-67
2023/10/13 06:59:47;;;;;;;7.23;5.63;;;17.90;99.90;;;;;;4968457;28;20804;-67
2023/10/13 07:02:22;;;;;;;9.23;5.80;;;18.20;99.90;;;;;;4970389;28;20839;-67
2023/10/13 07:04:56;;;;;;;9.93;5.90;;;18.50;99.90;;;;;;4973662;28;20418;-67
2023/10/13 07:07:23;;;;;;;7.13;6.30;;;18.80;99.90;;;;;;4973718;28;20404;-67
2023/10/13 07:09:55;;;;;;;7.00;5.30;;;19.00;99.90;;;;;;4973869;28;20822;-68
2023/10/13 07:12:26;;;;;;;7.80;4.80;;;19.10;99.90;;;;;;4973773;28;20455;-67
2023/10/13 07:14:52;;;;;;;7.20;5.60;;;19.20;99.70;;;;;;4973862;28;20427;-68
2023/10/13 07:17:24;;;;;;;8.20;6.33;;;19.40;99.40;;;;;;4963221;28;20846;-67
2023/10/13 07:19:54;;;;;;;7.30;5.60;;;19.50;98.60;;;;;;4965719;28;20807;-66
2023/10/13 07:22:20;;;;;;;9.17;5.40;;;19.80;97.80;;;;;;4971425;28;20710;-67
2023/10/13 07:24:49;;;;;;;8.73;5.20;;;19.90;97.40;;;;;;4973220;28;20510;-67
2023/10/13 07:27:22;;;;;;;7.20;5.53;;;20.10;97.00;;;;;;4973353;28;20226;-67
2023/10/13 07:29:56;;;;;;;6.30;4.90;;;20.30;96.00;;;;;;4973474;28;20439;-67
2023/10/13 07:32:26;;;;;;;13.20;5.10;;;20.50;95.80;;;;;;4970975;28;20458;-67
2023/10/13 07:34:57;;;;;;;6.80;5.63;;;20.80;94.50;;;;;;4967150;28;20798;-66
2023/10/13 07:37:28;;;;;;;10.93;5.63;;;21.20;93.50;;;;;;4965073;28;20430;-67
2023/10/13 07:39:57;;;;;;;13.40;6.40;;;21.30;92.70;;;;;;4973218;28;20440;-67
2023/10/13 07:42:25;;;;;;;7.87;5.63;;;21.40;92.10;;;;;;4973163;28;20817;-67
2023/10/13 07:44:55;;;;;;;9.07;5.47;;;21.50;91.20;;;;;;4970181;28;20428;-67
2023/10/13 07:47:24;;;;;;;9.57;5.20;;;21.70;90.80;;;;;;4974200;28;20471;-67
2023/10/13 07:49:50;;;;;;;8.73;4.87;;;21.70;90.30;;;;;;4971648;28;20424;-67
2023/10/13 07:52:35;;;;;;;6.33;4.80;;;21.90;89.90;;;;;;4971333;28;20591;-67
2023/10/13 07:55:21;;;;;;;5.93;4.57;;;22.20;88.20;;;;;;4973205;28;20936;-68
2023/10/13 07:57:53;;;;;;;8.03;5.00;;;22.50;86.20;;;;;;4972616;28;20861;-67
2023/10/13 08:00:38;;;;;;;8.03;5.07;;;22.80;84.00;;;;;;4971877;28;20463;-68
2023/10/13 08:03:09;;;;;;;11.20;4.47;;;22.80;82.70;;;;;;4971991;28;20955;-67
2023/10/13 08:08:21;;;;;;;7.60;4.27;;;23.00;80.70;;;;;;4973151;28;20458;-71
2023/10/13 08:10:46;;;;;;;6.50;4.57;;;23.30;79.00;;;;;;4971905;28;20436;-68
2023/10/13 08:13:13;;;;;;;6.60;4.20;;;23.30;77.50;;;;;;4971615;28;20467;-68
2023/10/13 08:15:47;;;;;;;8.63;5.47;;;23.40;76.60;;;;;;4973396;28;20176;-67
2023/10/13 08:18:32;;;;;;;11.23;5.23;;;23.60;74.00;;;;;;4972871;28;20430;-66
2023/10/13 08:21:02;;;;;;;7.20;4.67;;;23.40;74.30;;;;;;4965953;28;20468;-67
2023/10/13 08:23:57;;;;;;;8.57;5.17;;;23.60;73.40;;;;;;4971071;28;20454;-67
2023/10/13 08:31:49;;;;;;;7.50;4.57;;;24.20;70.60;;;;;;4972806;28;20965;-68
2023/10/13 08:34:23;;;;;;;8.90;4.80;;;24.40;70.30;;;;;;4972603;28;20423;-68
2023/10/13 08:36:48;;;;;;;5.70;3.60;;;25.00;68.50;;;;;;4971828;28;20443;-67
2023/10/13 08:42:11;;;;;;;5.47;3.80;;;25.50;65.70;;;;;;4972630;28;20298;-68
2023/10/13 08:44:45;;;;;;;10.00;5.17;;;25.80;63.40;;;;;;4972492;28;20419;-67
2023/10/13 08:47:18;;;;;;;11.53;5.40;;;26.00;62.10;;;;;;4972691;28;20454;-68
2023/10/13 08:49:50;;;;;;;6.80;4.00;;;26.10;60.80;;;;;;4980327;28;20517;-67
2023/10/13 08:56:02;;;;;;;4.53;4.13;;;26.30;59.00;;;;;;4972642;28;20450;-68
2023/10/13 08:57:53;;;;;;;9.70;4.23;;;26.60;57.90;;;;;;4972179;28;20514;-68
2023/10/13 09:00:28;;;;;;;7.13;4.13;;;26.90;57.50;;;;;;4976174;28;20846;-67
2023/10/13 09:02:59;;;;;;;5.70;4.50;;;27.50;56.30;;;;;;4975719;28;20823;-67
2023/10/13 09:06:00;;;;;;;8.67;4.07;;;27.70;55.00;;;;;;4976064;28;20499;-68
2023/10/13 09:08:35;;;;;;;8.70;3.97;;;28.00;54.20;;;;;;4973289;28;20432;-68
2023/10/13 09:11:12;;;;;;;4.70;4.30;;;27.80;52.70;;;;;;4970871;28;20434;-67
2023/10/13 09:13:44;;;;;;;7.00;4.30;;;27.90;53.00;;;;;;4975407;28;20466;-67
2023/10/13 09:16:16;;;;;;;4.47;4.07;;;28.20;51.70;;;;;;4975821;28;20415;-68
2023/10/13 09:18:47;;;;;;;4.77;4.10;;;28.40;51.50;;;;;;4975900;28;20400;-67
2023/10/13 09:26:47;;;;;;;8.67;4.13;;;29.20;48.50;;;;;;4967016;28;20438;-67
2023/10/13 09:29:19;;;;;;;7.80;4.80;;;29.40;47.90;;;;;;4975449;28;20420;-68
2023/10/13 09:32:00;;;;;;;6.90;4.60;;;29.30;47.50;;;;;;4975359;28;20426;-67
2023/10/13 09:34:29;;;;;;;5.03;3.70;;;29.60;47.30;;;;;;4975124;28;20424;-66
2023/10/13 09:36:58;;;;;;;5.00;4.50;;;30.40;45.90;;;;;;4977492;28;20491;-68
2023/10/13 09:39:29;;;;;;;16.10;4.87;;;30.80;45.00;;;;;;4976948;28;20425;-67
2023/10/13 09:41:57;;;;;;;5.57;4.00;;;31.30;44.20;;;;;;4982091;28;20479;-67
2023/10/13 09:44:23;;;;;;;6.93;4.07;;;31.80;41.80;;;;;;4980895;28;20514;-66
2023/10/13 09:46:49;;;;;;;10.50;5.30;;;31.60;41.90;;;;;;4985544;28;20585;-65
2023/10/13 09:49:44;;;;;;;6.53;4.50;;;30.90;41.40;;;;;;4980255;28;20183;-65
2023/10/13 09:52:19;;;;;;;8.07;4.60;;;30.40;42.20;;;;;;4989284;28;20451;-66
2023/10/13 09:55:09;;;;;;;6.83;4.20;;;31.30;42.00;;;;;;4987192;28;20445;-66
2023/10/13 09:57:43;;;;;;;4.93;3.70;;;31.80;40.80;;;;;;4975148;28;20444;-66
2023/10/13 10:00:28;;;;;;;4.67;3.90;;;31.70;39.30;;;;;;4976820;28;20482;-65
2023/10/13 10:02:58;;;;;;;6.80;4.00;;;32.60;39.80;;;;;;4988765;28;21237;-65
2023/10/13 10:05:25;;;;;;;6.00;5.00;;;33.60;38.80;;;;;;4977052;28;20432;-66
2023/10/13 10:08:01;;;;;;;7.20;4.17;;;34.30;36.70;;;;;;4974354;28;20446;-65
2023/10/13 10:10:52;;;;;;;7.90;4.13;;;33.20;36.20;;;;;;4984170;28;20513;-65
2023/10/13 10:13:34;;;;;;;4.87;4.13;;;33.30;35.40;;;;;;4983167;28;20499;-66
2023/10/13 10:16:08;;;;;;;8.77;3.93;;;32.70;36.00;;;;;;4979646;28;20944;-67
2023/10/13 10:18:34;;;;;;;5.53;4.07;;;33.00;35.70;;;;;;4976850;28;20428;-65
2023/10/13 10:21:07;;;;;;;4.50;4.07;;;34.00;34.30;;;;;;4980107;28;20963;-65
2023/10/13 10:23:39;;;;;;;5.90;3.30;;;33.50;34.80;;;;;;4974005;28;20211;-65
2023/10/13 10:26:19;;;;;;;7.23;3.60;;;33.30;33.90;;;;;;4981542;28;20429;-65
2023/10/13 10:28:46;;;;;;;7.83;4.70;;;33.60;33.70;;;;;;4976692;28;20439;-65
2023/10/13 10:31:12;;;;;;;7.23;4.70;;;34.40;34.00;;;;;;4983245;28;20455;-65
2023/10/13 10:33:41;;;;;;;6.03;4.47;;;35.00;32.70;;;;;;4972229;28;20507;-66
2023/10/13 10:36:16;;;;;;;6.77;4.90;;;35.30;32.10;;;;;;4954831;28;20515;-63
2023/10/13 10:39:00;;;;;;;9.40;4.93;;;33.60;32.30;;;;;;4969830;28;20478;-65
2023/10/13 10:41:45;;;;;;;12.23;4.73;;;32.00;34.30;;;;;;4990967;28;20485;-66
2023/10/13 10:47:09;;;;;;;6.40;4.10;;;32.20;34.30;;;;;;4969099;28;20502;-65
2023/10/13 10:49:38;;;;;;;9.00;5.30;;;33.00;34.10;;;;;;4974033;28;20423;-66
2023/10/13 10:52:07;;;;;;;7.63;4.63;;;33.70;33.50;;;;;;4973834;28;20507;-65
2023/10/13 10:54:33;;;;;;;5.10;4.57;;;35.30;32.70;;;;;;4972056;28;20433;-66
2023/10/13 10:57:37;;;;;;;6.80;4.00;;;36.70;31.40;;;;;;4973602;28;20419;-65
2023/10/13 11:00:11;;;;;;;7.80;4.77;;;36.20;30.30;;;;;;4965536;28;20279;-65
2023/10/13 11:02:37;;;;;;;5.83;4.70;;;35.10;31.00;;;;;;4964922;28;20498;-65
2023/10/13 11:05:05;;;;;;;10.33;5.07;;;34.00;31.80;;;;;;4973997;28;20781;-66
2023/10/13 11:07:31;;;;;;;8.03;5.20;;;34.00;32.60;;;;;;4973712;28;20420;-66
2023/10/13 11:10:11;;;;;;;4.70;4.30;;;34.20;31.70;;;;;;4973704;28;21109;-65
2023/10/13 11:12:39;;;;;;;11.03;5.00;;;34.30;31.30;;;;;;4973179;28;20306;-65
2023/10/13 11:15:21;;;;;;;9.23;4.83;;;34.20;31.20;;;;;;4975769;28;20446;-64
2023/10/13 11:20:25;;;;;;;5.77;3.80;;;34.70;30.70;;;;;;4932784;29;20505;-65
2023/10/13 11:22:52;;;;;;;4.70;3.93;;;34.00;31.20;;;;;;4934478;29;20457;-67
2023/10/13 11:25:30;;;;;;;7.13;4.53;;;33.40;30.80;;;;;;4935405;29;20413;-66
2023/10/13 11:28:09;;;;;;;5.97;3.90;;;32.80;31.60;;;;;;4936289;29;20809;-67
2023/10/13 11:33:08;;;;;;;7.60;4.50;;;32.70;32.40;;;;;;4953095;29;20440;-65
2023/10/13 11:38:35;;;;;;;6.83;4.03;;;33.60;31.30;;;;;;4954057;28;20496;-65
2023/10/13 11:46:14;;;;;;;6.90;4.80;;;36.30;29.90;;;;;;4953120;29;20413;-65
2023/10/13 11:48:42;;;;;;;6.70;3.97;;;35.70;29.20;;;;;;4940914;29;20501;-65
2023/10/13 11:51:16;;;;;;;5.93;4.40;;;34.60;29.60;;;;;;4939282;28;20971;-66
2023/10/13 11:53:49;;;;;;;4.77;4.23;;;35.10;29.80;;;;;;4952747;29;20438;-66
2023/10/13 11:56:17;;;;;;;8.97;4.80;;;35.80;29.20;;;;;;4953075;29;20892;-66
2023/10/13 11:58:42;;;;;;;4.80;4.40;;;35.40;29.20;;;;;;4953203;28;20455;-66
2023/10/13 12:09:18;;;;;;;6.73;4.77;;;36.60;28.70;;;;;;4953648;28;20447;-66
2023/10/13 12:11:45;;;;;;;7.80;4.23;;;36.00;28.40;;;;;;4953751;29;20826;-66
2023/10/13 12:14:36;;;;;;;7.50;4.77;;;35.70;28.50;;;;;;4953281;29;20433;-67
2023/10/13 12:17:10;;;;;;;6.40;4.13;;;36.20;28.20;;;;;;4953662;29;20428;-67
2023/10/13 12:19:38;;;;;;;6.60;4.83;;;36.70;28.00;;;;;;4953447;28;20502;-67
2023/10/13 12:22:05;;;;;;;8.33;4.50;;;36.80;27.90;;;;;;4952685;29;20849;-66
2023/10/13 12:29:51;;;;;;;6.53;4.20;;;36.80;27.50;;;;;;4953777;28;20452;-66
2023/10/13 12:32:23;;;;;;;9.80;4.63;;;37.90;27.90;;;;;;4953385;28;20420;-67
2023/10/13 12:51:20;;;;;;;6.30;4.30;;;38.70;26.70;;;;;;4957246;29;20808;-66
2023/10/13 12:53:53;;;;;;;4.30;3.90;;;39.60;26.40;;;;;;4956699;29;20438;-66
2023/10/13 12:56:26;;;;;;;6.40;4.40;;;40.00;26.10;;;;;;4955663;29;20521;-66
2023/10/13 12:58:55;;;;;;;7.33;4.40;;;39.60;26.00;;;;;;4955991;28;20826;-66
2023/10/13 13:01:21;;;;;;;4.23;3.83;;;38.40;26.10;;;;;;4956647;29;20518;-65
2023/10/13 13:03:49;;;;;;;9.07;5.83;;;37.70;26.80;;;;;;4956476;29;20455;-66
2023/10/13 13:06:24;;;;;;;6.60;3.87;;;37.70;26.60;;;;;;4956663;29;20420;-66
2023/10/13 13:08:53;;;;;;;6.50;4.20;;;37.10;26.70;;;;;;4956576;28;20471;-65
2023/10/13 13:11:20;;;;;;;6.40;3.83;;;38.10;27.00;;;;;;4956596;29;21004;-65
2023/10/13 13:13:46;;;;;;;5.73;3.90;;;38.00;26.20;;;;;;4955456;29;20440;-66
2023/10/13 13:16:23;;;;;;;7.73;5.00;;;37.80;26.40;;;;;;4956515;29;20435;-66
2023/10/13 13:18:54;;;;;;;4.53;4.10;;;38.30;26.20;;;;;;4956232;28;20542;-66
2023/10/13 13:21:22;;;;;;;6.20;4.77;;;38.80;25.40;;;;;;4956395;29;20464;-65
2023/10/13 13:23:49;;;;;;;6.70;4.43;;;37.80;25.00;;;;;;4956110;29;20481;-66
2023/10/13 13:26:17;;;;;;;8.40;4.20;;;37.10;25.50;;;;;;4956321;29;20921;-65
2023/10/13 13:28:50;;;;;;;6.80;4.40;;;36.30;25.90;;;;;;4955453;28;20440;-65
2023/10/13 13:31:26;;;;;;;6.47;3.83;;;35.70;26.00;;;;;;4956010;29;20438;-65
2023/10/13 13:33:52;;;;;;;6.03;5.03;;;36.10;26.20;;;;;;4955929;29;20439;-65
2023/10/13 13:36:19;;;;;;;4.73;4.30;;;35.10;26.50;;;;;;4956145;29;20432;-65
2023/10/13 13:38:51;;;;;;;4.97;3.80;;;34.30;27.00;;;;;;4938757;29;20476;-65
2023/10/13 13:41:17;;;;;;;5.70;4.07;;;33.60;27.00;;;;;;4956112;29;20456;-65
2023/10/13 13:46:27;;;;;;;7.80;4.90;;;32.80;28.00;;;;;;4955929;29;20412;-65
2023/10/13 13:48:58;;;;;;;4.87;4.57;;;32.00;28.80;;;;;;4955889;28;20448;-65
2023/10/13 13:51:27;;;;;;;6.00;4.07;;;32.00;29.50;;;;;;4953746;29;20807;-65
2023/10/13 13:53:54;;;;;;;5.27;4.00;;;31.70;29.00;;;;;;4954628;29;20499;-65
2023/10/13 13:56:20;;;;;;;5.07;4.20;;;31.20;29.60;;;;;;4955618;29;20499;-65
2023/10/13 13:58:47;;;;;;;4.40;4.10;;;30.80;29.60;;;;;;4955603;28;20439;-64
2023/10/13 14:01:18;;;;;;;5.43;3.50;;;30.20;29.80;;;;;;4955853;29;20208;-65
2023/10/13 14:03:46;;;;;;;6.20;4.60;;;29.70;29.80;;;;;;4955443;29;20416;-65
2023/10/13 14:06:22;;;;;;;6.43;3.83;;;29.30;30.00;;;;;;4946910;29;21057;-64
2023/10/13 14:08:50;;;;;;;8.10;4.87;;;29.10;29.90;;;;;;4955423;28;20440;-65
2023/10/13 14:12:25;;;;;;;4.90;3.53;;;28.80;30.00;;;;;;4955479;29;20479;-64
2023/10/13 14:16:52;;;;;;;6.07;4.30;;;28.50;30.50;;;;;;4955401;29;20425;-64
2023/10/13 14:19:27;;;;;;;6.93;4.43;;;28.30;30.70;;;;;;4954330;28;20476;-65
2023/10/13 14:21:56;;;;;;;10.90;5.30;;;28.20;30.70;;;;;;4955100;29;21134;-64
2023/10/13 14:24:32;;;;;;;7.43;3.60;;;28.10;30.40;;;;;;4954942;29;20481;-64
2023/10/13 14:27:07;;;;;;;5.37;3.80;;;28.00;30.80;;;;;;4955201;29;20420;-66
2023/10/13 14:29:33;;;;;;;4.17;3.87;;;28.00;31.20;;;;;;4955091;28;20868;-66
2023/10/13 14:31:59;;;;;;;5.37;3.90;;;28.00;31.00;;;;;;4955124;29;20435;-66
2023/10/13 14:34:26;;;;;;;7.30;4.10;;;27.90;30.80;;;;;;4954802;29;20803;-67
2023/10/13 14:36:51;;;;;;;5.57;3.30;;;27.80;31.00;;;;;;4953305;29;20714;-67
2023/10/13 14:39:20;;;;;;;8.17;4.43;;;27.80;31.10;;;;;;4954839;28;20476;-67
2023/10/13 14:41:47;;;;;;;4.03;3.63;;;27.70;31.00;;;;;;4954938;29;20982;-67
2023/10/13 14:44:16;;;;;;;6.20;3.30;;;27.60;30.80;;;;;;4954554;29;20456;-67
2023/10/13 14:46:42;;;;;;;3.57;3.27;;;27.60;30.90;;;;;;4954818;29;20420;-66
2023/10/13 14:49:07;;;;;;;5.67;3.50;;;27.50;30.80;;;;;;4954768;28;20437;-67
2023/10/13 14:51:33;;;;;;;5.93;4.00;;;27.40;30.90;;;;;;4954609;29;20527;-67
2023/10/13 14:54:03;;;;;;;7.00;3.60;;;27.40;30.70;;;;;;4947646;29;20182;-67
2023/10/13 14:56:29;;;;;;;4.97;3.10;;;27.30;30.80;;;;;;4952949;28;20184;-66
2023/10/13 14:58:55;;;;;;;5.97;3.47;;;27.20;30.20;;;;;;4954593;28;20448;-66
2023/10/13 15:01:22;;;;;;;5.97;4.67;;;27.20;30.30;;;;;;4944568;28;20200;-68
2023/10/13 15:03:55;;;;;;;3.93;3.60;;;27.10;30.40;;;;;;4954119;29;20181;-67
2023/10/13 15:06:28;;;;;;;9.00;4.00;;;27.10;30.20;;;;;;4949549;29;20529;-67
2023/10/13 15:08:54;;;;;;;4.60;3.20;;;27.00;29.90;;;;;;4952430;28;20452;-68
2023/10/13 15:11:27;;;;;;;4.53;3.63;;;26.90;30.10;;;;;;4954137;29;20837;-68
2023/10/13 15:13:53;;;;;;;3.93;3.53;;;26.90;30.50;;;;;;4952307;29;20445;-68
2023/10/13 15:16:21;;;;;;;4.43;3.43;;;26.80;30.40;;;;;;4952765;29;20977;-68
2023/10/13 15:18:51;;;;;;;4.97;2.93;;;26.80;30.60;;;;;;4953981;28;20475;-68
2023/10/13 15:21:28;;;;;;;6.07;3.30;;;26.80;31.00;;;;;;4954083;29;20544;-68
2023/10/13 15:23:59;;;;;;;3.13;2.83;;;26.70;31.10;;;;;;4953789;29;20421;-68
2023/10/13 15:26:25;;;;;;;5.43;3.47;;;26.60;31.80;;;;;;4954273;29;20513;-68
2023/10/13 15:28:55;;;;;;;3.27;2.97;;;26.50;32.00;;;;;;4953175;28;20546;-67
2023/10/13 15:33:59;;;;;;;4.23;3.60;;;26.30;31.40;;;;;;4952278;29;20440;-68
2023/10/13 15:36:26;;;;;;;3.90;3.60;;;26.30;31.40;;;;;;4952855;29;20451;-68
2023/10/13 15:38:53;;;;;;;4.30;3.90;;;26.20;31.80;;;;;;4953825;28;20456;-68
2023/10/13 15:41:26;;;;;;;3.37;3.07;;;26.10;31.40;;;;;;4953650;29;20468;-68
2023/10/13 15:43:54;;;;;;;3.83;3.27;;;26.00;31.30;;;;;;4952954;29;20802;-68
2023/10/13 15:46:21;;;;;;;4.90;3.77;;;26.00;31.50;;;;;;4953044;29;20436;-68
2023/10/13 15:48:47;;;;;;;3.23;2.50;;;25.90;31.90;;;;;;4953794;28;20817;-68
2023/10/13 15:51:13;;;;;;;5.23;4.00;;;25.80;31.70;;;;;;4953767;29;20429;-68
2023/10/13 15:53:39;;;;;;;7.90;4.23;;;25.70;31.50;;;;;;4953529;29;20484;-68
2023/10/13 15:56:11;;;;;;;8.47;4.23;;;25.70;31.30;;;;;;4951671;29;20479;-68
2023/10/13 15:58:46;;;;;;;8.30;3.67;;;25.70;31.60;;;;;;4952132;28;20204;-68
2023/10/13 16:01:15;;;;;;;6.23;3.87;;;25.60;31.00;;;;;;4949423;29;20463;-68
2023/10/13 16:03:49;;;;;;;6.17;3.10;;;25.60;31.00;;;;;;4953184;29;20432;-68
2023/10/13 16:06:15;;;;;;;3.70;3.40;;;25.50;31.10;;;;;;4953679;29;20544;-68
2023/10/13 16:08:44;;;;;;;4.73;3.43;;;25.50;31.10;;;;;;4955204;28;20591;-68
2023/10/13 16:11:17;;;;;;;3.67;3.30;;;25.40;31.60;;;;;;4957692;29;20416;-68
2023/10/13 16:13:51;;;;;;;3.53;2.87;;;25.40;31.40;;;;;;4956425;29;20450;-68
2023/10/13 16:16:17;;;;;;;4.50;3.30;;;25.20;31.70;;;;;;4957467;29;20446;-68
2023/10/13 16:18:44;;;;;;;8.03;6.80;;;25.20;31.70;;;;;;4957245;28;20486;-68
2023/10/13 16:21:12;;;;;;;8.47;3.73;;;25.10;31.50;;;;;;4957188;29;20484;-68
2023/10/13 16:23:39;;;;;;;4.70;3.20;;;25.10;31.70;;;;;;4957135;29;20424;-68
2023/10/13 16:26:07;;;;;;;3.97;3.50;;;25.30;32.10;;;;;;4957414;29;20938;-68
2023/10/13 16:28:34;;;;;;;4.67;3.37;;;25.00;32.10;;;;;;4957082;28;20483;-68
2023/10/13 16:31:00;;;;;;;4.80;3.60;;;24.90;32.40;;;;;;4956408;29;20506;-68